createdAt,value
2022-10-19T00:01:38.417Z,100.00
2022-10-19T00:04:08.637Z,100.00
2022-10-19T00:06:38.118Z,100.00
2022-10-19T00:09:08.354Z,100.00
2022-10-19T00:11:38.125Z,100.00
2022-10-19T00:14:06.125Z,100.00
2022-10-19T00:16:35.415Z,100.00
2022-10-19T00:19:06.894Z,100.00
2022-10-19T00:21:33.857Z,100.00
2022-10-19T00:24:03.393Z,100.00
2022-10-19T00:26:30.596Z,100.00
2022-10-19T00:28:58.342Z,100.00
2022-10-19T00:31:26.497Z,100.00
2022-10-19T00:33:55.923Z,100.00
2022-10-19T00:36:25.915Z,100.00
2022-10-19T00:38:53.802Z,100.00
2022-10-19T00:41:24.736Z,100.00
2022-10-19T00:43:54.777Z,100.00
2022-10-19T00:46:22.289Z,100.00
2022-10-19T00:48:50.788Z,100.00
2022-10-19T00:51:18.187Z,100.00
2022-10-19T00:53:45.582Z,100.00
2022-10-19T00:56:15.058Z,100.00
2022-10-19T00:58:44.682Z,100.00
2022-10-19T01:01:16.048Z,100.00
2022-10-19T01:03:43.327Z,100.00
2022-10-19T01:06:12.088Z,100.00
2022-10-19T01:08:39.307Z,100.00
2022-10-19T01:11:23.006Z,100.00
2022-10-19T01:14:04.078Z,100.00
2022-10-19T01:16:42.727Z,100.00
2022-10-19T01:19:29.737Z,100.00
2022-10-19T01:22:09.126Z,100.00
2022-10-19T01:24:52.407Z,100.00
2022-10-19T01:27:44.140Z,100.00
2022-10-19T01:30:18.093Z,100.00
2022-10-19T01:33:05.065Z,100.00
2022-10-19T01:35:40.037Z,100.00
2022-10-19T01:38:23.500Z,100.00
2022-10-19T01:40:59.891Z,100.00
2022-10-19T01:43:38.374Z,100.00
2022-10-19T01:46:13.920Z,100.00
2022-10-19T01:48:45.605Z,100.00
2022-10-19T01:51:17.884Z,100.00
2022-10-19T01:53:51.487Z,100.00
2022-10-19T01:56:22.291Z,100.00
2022-10-19T01:58:51.661Z,100.00
2022-10-19T02:01:24.651Z,100.00
2022-10-19T02:03:54.065Z,100.00
2022-10-19T02:06:22.893Z,100.00
2022-10-19T02:08:53.251Z,100.00
2022-10-19T02:11:22.382Z,100.00
2022-10-19T02:13:54.898Z,100.00
2022-10-19T02:16:27.684Z,100.00
2022-10-19T02:18:56.759Z,100.00
2022-10-19T02:21:24.623Z,100.00
2022-10-19T02:23:54.184Z,100.00
2022-10-19T02:26:22.556Z,100.00
2022-10-19T02:28:50.775Z,100.00
2022-10-19T02:31:18.308Z,100.00
2022-10-19T02:33:48.169Z,100.00
2022-10-19T02:36:15.503Z,100.00
2022-10-19T02:38:43.043Z,100.00
2022-10-19T02:41:16.308Z,100.00
2022-10-19T02:43:48.184Z,100.00
2022-10-19T02:46:20.976Z,100.00
2022-10-19T02:48:52.280Z,100.00
2022-10-19T02:51:34.567Z,100.00
2022-10-19T02:54:05.202Z,100.00
2022-10-19T02:56:34.563Z,100.00
2022-10-19T02:59:02.866Z,100.00
2022-10-19T03:01:30.433Z,100.00
2022-10-19T03:04:00.463Z,100.00
2022-10-19T03:06:28.326Z,100.00
2022-10-19T03:08:56.080Z,100.00
2022-10-19T03:11:23.251Z,100.00
2022-10-19T03:13:50.544Z,100.00
2022-10-19T03:16:18.380Z,100.00
2022-10-19T03:18:47.844Z,100.00
2022-10-19T03:21:17.901Z,100.00
2022-10-19T03:23:45.323Z,100.00
2022-10-19T03:26:14.853Z,100.00
2022-10-19T03:28:42.749Z,100.00
2022-10-19T03:31:10.222Z,100.00
2022-10-19T03:33:37.732Z,100.00
2022-10-19T03:36:20.346Z,100.00
2022-10-19T03:38:50.056Z,100.00
2022-10-19T03:41:18.223Z,100.00
2022-10-19T03:43:46.144Z,100.00
2022-10-19T03:46:13.530Z,100.00
2022-10-19T03:48:41.121Z,100.00
2022-10-19T03:51:10.688Z,100.00
2022-10-19T03:53:40.301Z,100.00
2022-10-19T03:56:11.033Z,100.00
2022-10-19T03:58:39.913Z,100.00
2022-10-19T04:01:09.363Z,100.00
2022-10-19T04:03:37.748Z,100.00
2022-10-19T04:06:07.853Z,100.00
2022-10-19T04:08:36.100Z,100.00
2022-10-19T04:11:08.980Z,100.00
2022-10-19T04:13:36.793Z,100.00
2022-10-19T04:16:05.224Z,100.00
2022-10-19T04:18:33.469Z,100.00
2022-10-19T04:21:03.232Z,100.00
2022-10-19T04:23:33.963Z,100.00
2022-10-19T04:26:02.460Z,100.00
2022-10-19T04:28:32.149Z,100.00
2022-10-19T04:31:04.172Z,100.00
2022-10-19T04:33:32.063Z,100.00
2022-10-19T04:36:00.172Z,100.00
2022-10-19T04:38:28.993Z,100.00
2022-10-19T04:41:01.732Z,100.00
2022-10-19T04:43:31.324Z,100.00
2022-10-19T04:46:04.812Z,100.00
2022-10-19T04:48:32.762Z,100.00
2022-10-19T04:50:59.833Z,100.00
2022-10-19T04:53:27.534Z,100.00
2022-10-19T04:55:55.033Z,100.00
2022-10-19T04:58:23.184Z,100.00
2022-10-19T05:00:52.310Z,100.00
2022-10-19T05:03:19.833Z,100.00
2022-10-19T05:05:47.693Z,100.00
2022-10-19T05:08:15.194Z,100.00
2022-10-19T05:10:45.439Z,100.00
2022-10-19T05:13:15.712Z,100.00
2022-10-19T05:15:43.561Z,100.00
2022-10-19T05:18:12.872Z,100.00
2022-10-19T05:20:40.177Z,100.00
2022-10-19T05:23:07.522Z,100.00
2022-10-19T05:25:34.643Z,100.00
2022-10-19T05:28:01.932Z,100.00
2022-10-19T05:30:29.212Z,100.00
2022-10-19T05:32:56.493Z,100.00
2022-10-19T05:35:25.640Z,100.00
2022-10-19T05:37:54.913Z,100.00
2022-10-19T05:40:22.253Z,100.00
2022-10-19T05:42:49.501Z,100.00
2022-10-19T05:45:16.954Z,100.00
2022-10-19T05:47:44.246Z,100.00
2022-10-19T05:50:11.573Z,100.00
2022-10-19T05:52:40.874Z,100.00
2022-10-19T05:55:09.295Z,100.00
2022-10-19T05:57:36.932Z,100.00
2022-10-19T06:00:06.597Z,100.00
2022-10-19T06:02:34.754Z,100.00
2022-10-19T06:05:01.813Z,100.00
2022-10-19T06:07:29.087Z,100.00
2022-10-19T06:09:58.274Z,100.00
2022-10-19T06:12:26.202Z,100.00
2022-10-19T06:14:53.735Z,100.00
2022-10-19T06:17:21.134Z,100.00
2022-10-19T06:19:48.690Z,100.00
2022-10-19T06:22:16.495Z,100.00
2022-10-19T06:24:43.813Z,100.00
2022-10-19T06:27:13.532Z,100.00
2022-10-19T06:29:41.166Z,100.00
2022-10-19T06:32:08.553Z,100.00
2022-10-19T06:34:35.765Z,100.00
2022-10-19T06:37:03.832Z,100.00
2022-10-19T06:39:31.704Z,100.00
2022-10-19T06:41:59.214Z,100.00
2022-10-19T06:44:28.034Z,100.00
2022-10-19T06:46:55.452Z,100.00
2022-10-19T06:49:22.714Z,100.00
2022-10-19T06:51:49.834Z,100.00
2022-10-19T06:54:17.197Z,100.00
2022-10-19T06:56:44.402Z,100.00
2022-10-19T06:59:12.489Z,100.00
2022-10-19T07:01:41.794Z,100.00
2022-10-19T07:04:09.372Z,100.00
2022-10-19T07:06:36.573Z,100.00
2022-10-19T07:09:04.095Z,100.00
2022-10-19T07:11:31.673Z,100.00
2022-10-19T07:13:58.892Z,100.00
2022-10-19T07:16:26.176Z,100.00
2022-10-19T07:18:55.438Z,100.00
2022-10-19T07:21:23.925Z,100.00
2022-10-19T07:23:51.218Z,100.00
2022-10-19T07:26:20.452Z,100.00
2022-10-19T07:28:48.393Z,100.00
2022-10-19T07:31:17.480Z,100.00
2022-10-19T07:33:47.352Z,100.00
2022-10-19T07:36:15.971Z,100.00
2022-10-19T07:38:43.292Z,100.00
2022-10-19T07:41:13.141Z,100.00
2022-10-19T07:43:41.596Z,100.00
2022-10-19T07:46:12.317Z,100.00
2022-10-19T07:48:40.134Z,100.00
2022-10-19T07:51:09.435Z,100.00
2022-10-19T07:53:39.084Z,100.00
2022-10-19T07:56:08.503Z,100.00
2022-10-19T07:58:36.759Z,100.00
2022-10-19T08:01:06.556Z,100.00
2022-10-19T08:06:23.075Z,100.00
2022-10-19T08:08:53.407Z,100.00
2022-10-19T08:11:22.729Z,100.00
2022-10-19T08:13:50.914Z,100.00
2022-10-19T08:16:26.750Z,100.00
2022-10-19T08:18:57.505Z,100.00
2022-10-19T08:21:26.929Z,100.00
2022-10-19T08:23:55.752Z,100.00
2022-10-19T08:26:23.082Z,100.00
2022-10-19T08:28:50.628Z,100.00
2022-10-19T08:31:20.080Z,100.00
2022-10-19T08:33:49.394Z,100.00
2022-10-19T08:36:17.086Z,100.00
2022-10-19T08:38:44.433Z,100.00
2022-10-19T08:41:25.134Z,100.00
2022-10-19T08:44:10.080Z,100.00
2022-10-19T08:46:42.647Z,100.00
2022-10-19T08:49:12.755Z,100.00
2022-10-19T08:51:43.654Z,100.00
2022-10-19T08:54:17.214Z,100.00
2022-10-19T08:56:51.479Z,100.00
2022-10-19T08:59:31.041Z,100.00
2022-10-19T09:02:02.993Z,100.00
2022-10-19T09:04:35.682Z,100.00
2022-10-19T09:07:23.616Z,100.00
2022-10-19T09:09:54.147Z,100.00
2022-10-19T09:12:32.467Z,100.00
2022-10-19T09:15:02.744Z,100.00
2022-10-19T09:17:32.640Z,100.00
2022-10-19T09:20:14.040Z,100.00
2022-10-19T09:22:43.144Z,100.00
2022-10-19T09:25:15.052Z,100.00
2022-10-19T09:27:48.581Z,100.00
2022-10-19T09:30:19.739Z,100.00
2022-10-19T09:32:49.274Z,100.00
2022-10-19T09:35:23.165Z,100.00
2022-10-19T09:37:52.544Z,100.00
2022-10-19T09:40:22.817Z,100.00
2022-10-19T09:42:52.174Z,100.00
2022-10-19T09:45:32.692Z,100.00
2022-10-19T09:48:07.196Z,100.00
2022-10-19T09:50:44.461Z,100.00
2022-10-19T09:53:20.212Z,100.00
2022-10-19T09:55:51.750Z,100.00
2022-10-19T09:58:21.393Z,100.00
2022-10-19T10:00:50.413Z,100.00
2022-10-19T10:03:27.193Z,100.00
2022-10-19T10:05:57.332Z,100.00
2022-10-19T10:08:28.819Z,100.00
2022-10-19T10:11:05.474Z,100.00
2022-10-19T10:13:38.132Z,100.00
2022-10-19T10:16:09.584Z,100.00
2022-10-19T10:18:44.992Z,100.00
2022-10-19T10:21:15.733Z,100.00
2022-10-19T10:23:43.072Z,100.00
2022-10-19T10:26:19.742Z,100.00
2022-10-19T10:28:50.711Z,100.00
2022-10-19T10:31:24.412Z,100.00
2022-10-19T10:34:06.411Z,100.00
2022-10-19T10:36:44.673Z,100.00
2022-10-19T10:39:17.432Z,100.00
2022-10-19T10:41:48.012Z,100.00
2022-10-19T10:44:21.945Z,100.00
2022-10-19T10:46:54.560Z,100.00
2022-10-19T10:49:25.948Z,100.00
2022-10-19T10:51:56.977Z,100.00
2022-10-19T10:54:26.502Z,100.00
2022-10-19T10:57:16.364Z,100.00
2022-10-19T10:59:56.614Z,100.00
2022-10-19T11:02:36.381Z,100.00
2022-10-19T11:05:07.940Z,100.00
2022-10-19T11:07:37.498Z,100.00
2022-10-19T11:10:13.612Z,100.00
2022-10-19T11:12:47.220Z,100.00
2022-10-19T11:15:24.751Z,100.00
2022-10-19T11:18:05.940Z,100.00
2022-10-19T11:20:36.643Z,100.00
2022-10-19T11:23:16.043Z,100.00
2022-10-19T11:25:58.928Z,100.00
2022-10-19T11:28:45.007Z,100.00
2022-10-19T11:31:19.647Z,100.00
2022-10-19T11:33:57.255Z,100.00
2022-10-19T11:36:44.636Z,100.00
2022-10-19T11:39:30.087Z,100.00
2022-10-19T11:42:07.307Z,100.00
2022-10-19T11:44:47.216Z,100.00
2022-10-19T11:47:50.875Z,100.00
2022-10-19T11:50:36.379Z,100.00
2022-10-19T11:53:12.667Z,100.00
2022-10-19T11:55:46.867Z,100.00
2022-10-19T11:58:51.376Z,100.00
2022-10-19T12:01:32.328Z,100.00
2022-10-19T12:04:24.516Z,100.00
2022-10-19T12:07:06.717Z,100.00
2022-10-19T12:09:47.366Z,100.00
2022-10-19T12:12:30.877Z,100.00
2022-10-19T12:15:13.576Z,100.00
2022-10-19T12:17:45.476Z,100.00
2022-10-19T12:20:22.235Z,100.00
2022-10-19T12:22:55.198Z,100.00
2022-10-19T12:25:23.056Z,100.00
2022-10-19T12:27:50.798Z,100.00
2022-10-19T12:30:20.489Z,100.00
2022-10-19T12:33:04.148Z,99.91
2022-10-19T12:35:55.735Z,99.03
2022-10-19T12:38:30.425Z,99.34
2022-10-19T12:41:06.951Z,98.63
2022-10-19T12:43:41.916Z,95.74
2022-10-19T12:46:22.117Z,91.53
2022-10-19T12:49:22.195Z,95.30
2022-10-19T12:51:49.771Z,97.67
2022-10-19T12:54:24.123Z,97.28
2022-10-19T12:56:53.116Z,94.47
2022-10-19T12:59:24.404Z,93.58
2022-10-19T13:01:53.204Z,96.20
2022-10-19T13:04:24.008Z,98.90
2022-10-19T13:07:01.323Z,93.99
2022-10-19T13:09:32.955Z,94.16
2022-10-19T13:12:29.942Z,92.65
2022-10-19T13:14:58.414Z,90.64
2022-10-19T13:17:42.254Z,90.72
2022-10-19T13:20:51.074Z,92.14
2022-10-19T13:23:39.073Z,93.86
2022-10-19T13:26:31.285Z,97.14
2022-10-19T13:28:59.058Z,89.12
2022-10-19T13:31:28.934Z,87.58
2022-10-19T13:33:57.454Z,90.38
2022-10-19T13:36:26.634Z,90.34
2022-10-19T13:39:19.595Z,86.98
2022-10-19T13:41:54.335Z,93.32
2022-10-19T13:44:26.395Z,88.41
2022-10-19T13:47:29.331Z,87.83
2022-10-19T13:50:21.086Z,87.98
2022-10-19T13:53:12.384Z,91.25
2022-10-19T13:56:15.534Z,91.85
2022-10-19T13:59:16.379Z,88.93
2022-10-19T14:02:01.245Z,87.98
2022-10-19T14:04:42.227Z,89.16
2022-10-19T14:07:16.946Z,87.85
2022-10-19T14:10:07.876Z,90.66
2022-10-19T14:12:39.985Z,92.16
2022-10-19T14:15:27.533Z,88.72
2022-10-19T14:17:56.014Z,88.41
2022-10-19T14:20:31.154Z,88.73
2022-10-19T14:22:59.034Z,88.68
2022-10-19T14:25:28.463Z,88.50
2022-10-19T14:28:00.434Z,89.24
2022-10-19T14:30:31.934Z,91.32
2022-10-19T14:33:02.354Z,89.55
2022-10-19T14:35:33.395Z,90.53
2022-10-19T14:38:01.442Z,91.51
2022-10-19T14:40:30.709Z,89.43
2022-10-19T14:43:00.037Z,89.91
2022-10-19T14:45:30.413Z,91.53
2022-10-19T14:48:00.826Z,89.38
2022-10-19T14:50:41.590Z,91.03
2022-10-19T14:53:25.317Z,91.64
2022-10-19T14:55:58.333Z,91.72
2022-10-19T14:58:30.234Z,93.09
2022-10-19T15:01:00.133Z,92.09
2022-10-19T15:03:29.485Z,92.54
2022-10-19T15:06:01.118Z,93.39
2022-10-19T15:08:36.074Z,93.98
2022-10-19T15:11:04.756Z,95.37
2022-10-19T15:13:36.474Z,96.06
2022-10-19T15:16:06.373Z,96.49
2022-10-19T15:18:55.659Z,95.83
2022-10-19T15:21:23.695Z,97.61
2022-10-19T15:23:52.153Z,100.00
2022-10-19T15:26:22.914Z,100.00
2022-10-19T15:28:50.861Z,100.00
2022-10-19T15:31:24.073Z,99.48
2022-10-19T15:33:53.133Z,99.68
2022-10-19T15:36:23.194Z,99.45
2022-10-19T15:39:11.816Z,100.00
2022-10-19T15:41:50.001Z,100.00
2022-10-19T15:44:33.154Z,100.00
2022-10-19T15:47:20.934Z,100.00
2022-10-19T15:49:57.293Z,100.00
2022-10-19T15:52:27.881Z,100.00
2022-10-19T15:54:57.124Z,100.00
2022-10-19T15:57:30.410Z,100.00
2022-10-19T16:00:00.193Z,100.00
2022-10-19T16:02:30.373Z,100.00
2022-10-19T16:04:58.129Z,100.00
2022-10-19T16:07:28.034Z,100.00
2022-10-19T16:09:55.354Z,100.00
2022-10-19T16:12:24.145Z,100.00
2022-10-19T16:14:51.693Z,100.00
2022-10-19T16:17:19.385Z,100.00
2022-10-19T16:19:49.437Z,100.00
2022-10-19T16:22:17.056Z,100.00
2022-10-19T16:24:44.985Z,100.00
2022-10-19T16:27:12.273Z,100.00
2022-10-19T16:29:40.954Z,100.00
2022-10-19T16:32:09.279Z,100.00
2022-10-19T16:34:37.094Z,100.00
2022-10-19T16:37:07.447Z,100.00
2022-10-19T16:39:35.556Z,100.00
2022-10-19T16:42:03.693Z,100.00
2022-10-19T16:44:31.092Z,100.00
2022-10-19T16:46:59.454Z,100.00
2022-10-19T16:49:27.516Z,100.00
2022-10-19T16:51:57.410Z,100.00
2022-10-19T16:54:26.922Z,100.00
2022-10-19T16:56:54.812Z,100.00
2022-10-19T16:59:23.112Z,100.00
2022-10-19T17:01:50.940Z,100.00
2022-10-19T17:04:18.421Z,100.00
2022-10-19T17:06:49.943Z,100.00
2022-10-19T17:12:06.785Z,100.00
2022-10-19T17:14:34.582Z,100.00
2022-10-19T17:17:08.273Z,100.00
2022-10-19T17:19:38.613Z,100.00
2022-10-19T17:22:09.273Z,100.00
2022-10-19T17:24:37.545Z,100.00
2022-10-19T17:27:07.893Z,100.00
2022-10-19T17:29:37.935Z,100.00
2022-10-19T17:32:07.106Z,100.00
2022-10-19T17:34:36.251Z,100.00
2022-10-19T17:37:05.639Z,100.00
2022-10-19T17:39:37.098Z,100.00
2022-10-19T17:42:07.678Z,100.00
2022-10-19T17:44:37.645Z,100.00
2022-10-19T17:47:07.053Z,100.00
2022-10-19T17:49:41.702Z,100.00
2022-10-19T17:52:10.525Z,100.00
2022-10-19T17:54:48.524Z,100.00
2022-10-19T17:57:29.432Z,100.00
2022-10-19T17:59:58.105Z,100.00
2022-10-19T18:02:26.574Z,100.00
2022-10-19T18:04:55.334Z,100.00
2022-10-19T18:07:24.461Z,100.00
2022-10-19T18:09:55.862Z,100.00
2022-10-19T18:12:25.950Z,100.00
2022-10-19T18:15:00.105Z,100.00
2022-10-19T18:17:28.648Z,100.00
2022-10-19T18:19:57.592Z,100.00
2022-10-19T18:22:27.537Z,100.00
2022-10-19T18:24:56.163Z,100.00
2022-10-19T18:27:24.903Z,100.00
2022-10-19T18:29:56.239Z,100.00
2022-10-19T18:32:26.046Z,100.00
2022-10-19T18:35:05.117Z,100.00
2022-10-19T18:37:34.527Z,100.00
2022-10-19T18:40:03.013Z,100.00
2022-10-19T18:42:32.995Z,100.00
2022-10-19T18:45:05.762Z,100.00
2022-10-19T18:47:35.336Z,100.00
2022-10-19T18:50:06.578Z,100.00
2022-10-19T18:52:35.901Z,100.00
2022-10-19T18:55:05.922Z,100.00
2022-10-19T18:57:34.790Z,100.00
2022-10-19T19:00:05.564Z,100.00
2022-10-19T19:02:46.351Z,100.00
2022-10-19T19:05:16.302Z,100.00
2022-10-19T19:07:52.104Z,100.00
2022-10-19T19:10:24.165Z,100.00
2022-10-19T19:12:56.514Z,100.00
2022-10-19T19:15:27.555Z,100.00
2022-10-19T19:18:05.779Z,100.00
2022-10-19T19:20:33.759Z,100.00
2022-10-19T19:23:03.425Z,100.00
2022-10-19T19:25:33.203Z,100.00
2022-10-19T19:28:02.072Z,100.00
2022-10-19T19:30:33.008Z,100.00
2022-10-19T19:33:00.919Z,100.00
2022-10-19T19:35:29.171Z,100.00
2022-10-19T19:37:57.543Z,100.00
2022-10-19T19:40:25.745Z,100.00
2022-10-19T19:42:54.080Z,100.00
2022-10-19T19:45:22.412Z,100.00
2022-10-19T19:47:54.807Z,100.00
2022-10-19T19:50:27.115Z,100.00
2022-10-19T19:53:00.919Z,100.00
2022-10-19T19:55:29.572Z,100.00
2022-10-19T19:58:00.145Z,100.00
2022-10-19T20:00:30.231Z,100.00
2022-10-19T20:03:00.849Z,100.00
2022-10-19T20:05:35.685Z,100.00
2022-10-19T20:08:06.981Z,100.00
2022-10-19T20:10:38.905Z,100.00
2022-10-19T20:13:07.739Z,100.00
2022-10-19T20:15:38.509Z,100.00
2022-10-19T20:18:09.847Z,100.00
2022-10-19T20:20:38.526Z,100.00
2022-10-19T20:23:07.678Z,100.00
2022-10-19T20:25:37.855Z,100.00
2022-10-19T20:28:07.090Z,100.00
2022-10-19T20:30:36.389Z,100.00
2022-10-19T20:33:03.794Z,100.00
2022-10-19T20:35:36.631Z,100.00
2022-10-19T20:38:05.146Z,100.00
2022-10-19T20:40:33.937Z,100.00
2022-10-19T20:43:01.653Z,100.00
2022-10-19T20:45:31.851Z,100.00
2022-10-19T20:47:59.989Z,100.00
2022-10-19T20:50:28.080Z,100.00
2022-10-19T20:52:57.527Z,100.00
2022-10-19T20:55:25.174Z,100.00
2022-10-19T20:57:52.569Z,100.00
2022-10-19T21:00:20.648Z,100.00
2022-10-19T21:02:48.830Z,100.00
2022-10-19T21:05:16.346Z,100.00
2022-10-19T21:07:43.605Z,100.00
2022-10-19T21:10:12.376Z,100.00
2022-10-19T21:12:40.230Z,100.00
2022-10-19T21:15:08.634Z,100.00
2022-10-19T21:17:36.328Z,100.00
2022-10-19T21:20:03.750Z,100.00
2022-10-19T21:22:34.463Z,100.00
2022-10-19T21:25:06.094Z,100.00
2022-10-19T21:27:35.224Z,100.00
2022-10-19T21:30:02.686Z,100.00
2022-10-19T21:32:29.896Z,100.00
2022-10-19T21:34:57.107Z,100.00
2022-10-19T21:37:24.960Z,100.00
2022-10-19T21:39:52.388Z,100.00
2022-10-19T21:42:19.533Z,100.00
2022-10-19T21:44:48.425Z,100.00
2022-10-19T21:47:17.053Z,100.00
2022-10-19T21:49:44.007Z,100.00
2022-10-19T21:52:15.863Z,100.00
2022-10-19T21:54:43.123Z,100.00
2022-10-19T21:57:10.553Z,100.00
2022-10-19T21:59:37.789Z,100.00
2022-10-19T22:02:07.252Z,100.00
2022-10-19T22:04:34.711Z,100.00
2022-10-19T22:07:02.105Z,100.00
2022-10-19T22:09:29.161Z,100.00
2022-10-19T22:11:56.367Z,100.00
2022-10-19T22:14:23.543Z,100.00
2022-10-19T22:16:50.943Z,100.00
2022-10-19T22:19:19.809Z,100.00
2022-10-19T22:21:47.018Z,100.00
2022-10-19T22:24:15.845Z,100.00
2022-10-19T22:26:45.284Z,100.00
2022-10-19T22:29:12.566Z,100.00
2022-10-19T22:31:40.013Z,100.00
2022-10-19T22:34:10.397Z,100.00
2022-10-19T22:36:39.151Z,100.00
2022-10-19T22:39:07.096Z,100.00
2022-10-19T22:41:34.267Z,100.00
2022-10-19T22:44:01.510Z,100.00
2022-10-19T22:46:28.440Z,100.00
2022-10-19T22:48:55.411Z,100.00
2022-10-19T22:51:22.722Z,100.00
2022-10-19T22:53:52.776Z,100.00
2022-10-19T22:56:19.957Z,100.00
2022-10-19T22:58:47.145Z,99.61
2022-10-19T23:01:15.633Z,98.74
2022-10-19T23:03:42.736Z,100.00
2022-10-19T23:06:11.904Z,100.00
2022-10-19T23:08:39.286Z,100.00
2022-10-19T23:11:08.162Z,100.00
2022-10-19T23:13:35.258Z,100.00
2022-10-19T23:16:02.427Z,100.00
2022-10-19T23:18:31.145Z,100.00
2022-10-19T23:21:00.030Z,100.00
2022-10-19T23:23:28.235Z,100.00
2022-10-19T23:25:59.980Z,100.00
2022-10-19T23:28:29.291Z,100.00
2022-10-19T23:30:57.791Z,100.00
2022-10-19T23:33:25.886Z,100.00
2022-10-19T23:35:52.896Z,100.00
2022-10-19T23:38:20.064Z,100.00
2022-10-19T23:40:46.997Z,100.00
2022-10-19T23:43:14.236Z,100.00
2022-10-19T23:45:45.098Z,100.00
2022-10-19T23:48:12.370Z,100.00
2022-10-19T23:50:39.903Z,100.00
2022-10-19T23:53:07.039Z,100.00
2022-10-19T23:55:34.085Z,100.00
2022-10-19T23:58:01.237Z,100.00
